createdAt,value
2019-03-09T00:00:39.592Z,100770.09
2019-03-09T00:03:13.715Z,100773.98
2019-03-09T00:05:44.836Z,100777.35
2019-03-09T00:08:15.263Z,100775.20
2019-03-09T00:10:45.801Z,100773.05
2019-03-09T00:13:17.805Z,100777.37
2019-03-09T00:15:48.186Z,100775.88
2019-03-09T00:18:18.625Z,100774.19
2019-03-09T00:20:49.988Z,100775.59
2019-03-09T00:23:35.000Z,100766.84
2019-03-09T00:26:07.305Z,100768.92
2019-03-09T00:28:55.527Z,100765.84
2019-03-09T00:31:42.900Z,100768.09
2019-03-09T00:34:13.417Z,100767.59
2019-03-09T00:36:43.807Z,100766.83
2019-03-09T00:39:14.777Z,100761.97
2019-03-09T00:41:45.378Z,100759.64
2019-03-09T00:44:15.936Z,100753.00
2019-03-09T00:46:46.563Z,100745.20
2019-03-09T00:49:17.235Z,100743.88
2019-03-09T00:51:47.785Z,100734.59
2019-03-09T00:54:18.519Z,100722.73
2019-03-09T00:56:49.217Z,100728.86
2019-03-09T00:59:20.597Z,100731.55
2019-03-09T01:01:50.981Z,100739.92
2019-03-09T01:04:22.637Z,100739.96
2019-03-09T01:06:53.285Z,100739.19
2019-03-09T01:09:23.686Z,100737.42
2019-03-09T01:11:54.074Z,100728.64
2019-03-09T01:14:24.555Z,100733.05
2019-03-09T01:16:55.384Z,100736.15
2019-03-09T01:19:25.899Z,100723.00
2019-03-09T01:21:56.397Z,100720.36
2019-03-09T01:24:26.956Z,100717.96
2019-03-09T01:26:58.192Z,100712.69
2019-03-09T01:29:28.544Z,100700.83
2019-03-09T01:31:59.014Z,100709.30
2019-03-09T01:34:29.763Z,100703.44
2019-03-09T01:37:00.105Z,100699.50
2019-03-09T01:39:30.752Z,100698.95
2019-03-09T01:42:01.097Z,100693.20
2019-03-09T01:44:31.564Z,100689.64
2019-03-09T01:47:02.510Z,100696.28
2019-03-09T01:49:32.930Z,100694.61
2019-03-09T01:52:03.545Z,100694.67
2019-03-09T01:54:34.066Z,100696.05
2019-03-09T01:57:04.532Z,100695.28
2019-03-09T01:59:34.892Z,100691.33
2019-03-09T02:02:06.448Z,100680.70
2019-03-09T02:04:37.061Z,100670.98
2019-03-09T02:07:07.406Z,100671.48
2019-03-09T02:09:37.766Z,100677.36
2019-03-09T02:12:08.169Z,100662.06
2019-03-09T02:14:38.606Z,100657.17
2019-03-09T02:17:09.111Z,100651.70
2019-03-09T02:19:39.704Z,100650.03
2019-03-09T02:22:10.002Z,100655.00
2019-03-09T02:24:40.353Z,100649.83
2019-03-09T02:27:10.964Z,100643.50
2019-03-09T02:29:41.902Z,100633.69
2019-03-09T02:32:12.539Z,100634.06
2019-03-09T02:34:43.107Z,100629.28
2019-03-09T02:37:13.556Z,100628.84
2019-03-09T02:39:45.647Z,100618.72
2019-03-09T02:42:16.024Z,100614.67
2019-03-09T02:44:46.547Z,100605.97
2019-03-09T02:47:17.187Z,100599.00
2019-03-09T02:49:47.588Z,100595.89
2019-03-09T02:52:18.612Z,100593.69
2019-03-09T02:54:49.048Z,100595.05
2019-03-09T02:57:19.447Z,100589.39
2019-03-09T02:59:49.786Z,100578.76
2019-03-09T03:02:25.636Z,100580.53
2019-03-09T03:04:56.081Z,100581.85
2019-03-09T03:07:26.656Z,100579.22
2019-03-09T03:09:57.011Z,100575.55
2019-03-09T03:12:27.377Z,100571.19
2019-03-09T03:14:57.965Z,100557.16
2019-03-09T03:17:28.350Z,100554.80
2019-03-09T03:19:58.850Z,100550.77
2019-03-09T03:22:29.325Z,100548.31
2019-03-09T03:25:00.029Z,100542.21
